Higashi-osaka, Japan
Current Conditions -  °F | °C
As of 7:00 PM on Thursday 23 Oct 2014 (Local Time) from RJOO Reporting Station
Few Clouds Few Clouds  
Wind Chill: 59°   Ceiling: Unl
Heat Index: 59°   Visibility: 6mi
Dew Point: 46°   Wind: 7mph
Humidity: 63%   Direction: 320°NW
Pressure: 30.06"   Gusts: NA
Location:  34.67°N, 135.58°E
Report Text: RJOO 231000Z 32006KT 9999 FEW030 15/08 Q1018
Loading
Personal Weather Stations






























Interactive Weather Map
Tropical Storm Tracking
New forecast layout! Learn more

10-Day Weather Forecast

Advertisements
Track Severe Weather on mobile